35OI weather

Fawcett Center For Tomorrow Heliport
Columbus, Ohio, United States

Public forecast

Using degrees Fahrenheit for public forecast. Weather courtesy of forecast.io.

METAR (pilot weather report)

Closest report is The Ohio State University Airport - Don Scott Field, 4.8 nm (9.0 km) NNW. Retrieved 2019/05/20 17:53 UTC (22 minutes ago):

KOSU 201753Z 25013G21KT 10SM BKN040 BKN048 19/10 A2998 RMK AO2 SLP148 T01890100 10200 20161 50005

TAF (pilot weather forecast)

Closest forecast is John Glenn Columbus International Airport, 5.9 nm (10.9 km) E. Retrieved 2019/05/20 12:39 UTC (6 hours ago):

TAF KCMH 201136Z 2012/2112 24010KT P6SM SCT025 TEMPO 2012/2014 BKN030 FM201600 28014G22KT P6SM BKN035 FM210000 31010KT P6SM SCT035 FM210300 34009KT P6SM FEW035 SCT250 FM210700 01005KT P6SM SCT015 BKN150